Time;durP1;ratioP1;P1;durP2;ratioP2;P2;SDS_P1;SDS_P2;PMS_P1;PMS_P2;Temp;Humidity;BMP_temperature;BMP_pressure;BME280_temperature;BME280_humidity;BME280_pressure;Samples;Min_cycle;Max_cycle;Signal;HPM_P1;HPM_P2
2021/03/29 00:04:56;;;;;;;5.88;2.55;;;;;;;11.48;46.04;101501.13;10347247;28;20542;-57
2021/03/29 00:09:59;;;;;;;6.20;2.55;;;;;;;11.49;45.92;101502.84;10351186;28;20046;-58
2021/03/29 00:15:01;;;;;;;5.53;2.22;;;;;;;11.29;46.71;101491.66;10345228;28;20162;-56
2021/03/29 00:20:08;;;;;;;8.40;2.60;;;;;;;11.30;46.14;101506.69;10321635;28;20053;-56
2021/03/29 00:25:15;;;;;;;5.60;2.75;;;;;;;11.22;46.90;101510.78;10344102;28;20033;-61
2021/03/29 00:30:20;;;;;;;7.28;3.08;;;;;;;11.19;46.95;101511.00;10334004;28;20392;-57
2021/03/29 00:35:23;;;;;;;6.35;2.78;;;;;;;11.08;47.02;101506.31;10340436;28;20107;-56
2021/03/29 00:40:25;;;;;;;6.72;3.15;;;;;;;11.01;47.59;101508.53;10320894;28;20107;-56
2021/03/29 00:45:27;;;;;;;7.82;3.28;;;;;;;10.89;47.53;101499.47;10339139;28;20108;-57
2021/03/29 00:50:38;;;;;;;6.30;2.50;;;;;;;10.95;47.49;101516.91;10343269;28;20050;-57
2021/03/29 00:55:45;;;;;;;6.60;2.75;;;;;;;10.87;47.65;101505.84;10342130;28;20045;-58
2021/03/29 01:00:51;;;;;;;7.03;3.13;;;;;;;10.91;47.78;101510.91;10329929;28;20058;-57
2021/03/29 01:05:59;;;;;;;6.22;2.80;;;;;;;11.02;47.76;101509.38;10349766;28;20057;-57
2021/03/29 01:11:04;;;;;;;4.63;3.13;;;;;;;10.97;47.92;101512.31;10342851;28;20446;-57
2021/03/29 01:16:06;;;;;;;;;;;;;;;10.90;48.10;101517.19;10340143;28;20127;-57
2021/03/29 01:21:31;;;;;;;6.25;2.80;;;;;;;10.85;47.75;101513.94;10342073;28;19925;-55
2021/03/29 01:26:40;;;;;;;6.85;2.80;;;;;;;10.74;48.16;101505.75;10320323;28;20045;-56
2021/03/29 01:31:43;;;;;;;6.13;2.60;;;;;;;10.71;48.49;101520.13;10324652;28;20057;-57
2021/03/29 01:36:44;;;;;;;5.22;2.55;;;;;;;10.73;48.42;101520.00;10326143;28;20054;-56
2021/03/29 01:41:46;;;;;;;7.15;2.42;;;;;;;10.71;48.61;101527.25;10323830;28;20943;-57
2021/03/29 01:46:48;;;;;;;5.25;3.38;;;;;;;10.60;48.73;101527.91;10340467;28;20483;-57
2021/03/29 01:51:49;;;;;;;6.95;3.08;;;;;;;10.60;48.65;101526.09;10344312;28;20133;-56
2021/03/29 01:56:51;;;;;;;4.20;2.50;;;;;;;10.62;49.01;101528.66;10344127;28;20057;-55
2021/03/29 02:01:54;;;;;;;7.03;2.78;;;;;;;10.59;48.70;101524.38;10355705;28;20133;-56
2021/03/29 02:06:57;;;;;;;6.40;2.95;;;;;;;10.56;48.46;101539.69;10352087;28;20053;-58
2021/03/29 02:11:58;;;;;;;7.78;2.72;;;;;;;10.35;48.71;101507.22;10344931;28;20079;-57
2021/03/29 02:16:59;;;;;;;7.88;2.90;;;;;;;10.50;48.38;101529.41;10338311;28;20057;-54
2021/03/29 02:22:02;;;;;;;6.75;2.83;;;;;;;10.46;48.43;101535.84;10345243;28;20053;-58
2021/03/29 02:27:03;;;;;;;8.90;3.47;;;;;;;10.37;48.81;101535.47;10351227;28;20114;-58
2021/03/29 02:32:05;;;;;;;6.23;3.20;;;;;;;10.35;48.84;101536.50;10360513;22;20851;-63
2021/03/29 02:37:07;;;;;;;5.78;2.78;;;;;;;10.39;48.53;101522.06;10341902;28;20073;-63
2021/03/29 02:42:08;;;;;;;7.18;2.88;;;;;;;10.44;48.42;101523.47;10350705;28;20049;-61
2021/03/29 02:47:09;;;;;;;5.03;2.80;;;;;;;10.46;48.26;101523.38;10329304;28;20046;-61
2021/03/29 02:52:10;;;;;;;10.95;3.67;;;;;;;10.47;48.41;101518.94;10345752;28;20045;-61
2021/03/29 02:57:11;;;;;;;7.57;3.08;;;;;;;10.47;48.57;101525.13;10344317;28;20469;-61
2021/03/29 03:02:13;;;;;;;6.38;3.88;;;;;;;10.46;48.44;101519.88;10346163;28;20124;-61
2021/03/29 03:07:15;;;;;;;7.80;3.10;;;;;;;10.52;48.32;101517.69;10346798;28;20050;-61
2021/03/29 03:12:16;;;;;;;7.80;3.28;;;;;;;10.59;48.41;101518.19;10345160;28;20082;-65
2021/03/29 03:17:17;;;;;;;6.70;3.20;;;;;;;10.60;48.19;101523.44;10346881;28;20046;-60
2021/03/29 03:22:18;;;;;;;7.43;2.75;;;;;;;10.69;48.39;101523.81;10356079;28;20053;-61
2021/03/29 03:27:20;;;;;;;5.82;3.33;;;;;;;10.69;48.05;101518.47;10354547;28;20072;-61
2021/03/29 03:32:21;;;;;;;6.88;3.38;;;;;;;10.67;48.01;101518.56;10347810;28;20278;-60
2021/03/29 03:37:22;;;;;;;7.65;3.13;;;;;;;10.62;48.16;101507.34;10349901;28;20049;-60
2021/03/29 03:42:23;;;;;;;6.95;3.70;;;;;;;10.55;48.51;101517.53;10350487;28;20045;-60
2021/03/29 03:47:26;;;;;;;7.38;3.40;;;;;;;10.53;48.41;101510.59;10351635;28;20081;-61
2021/03/29 03:52:28;;;;;;;6.60;3.53;;;;;;;10.49;48.56;101512.56;10351406;28;20054;-62
2021/03/29 03:57:29;;;;;;;8.13;3.78;;;;;;;10.54;48.82;101521.13;10344136;28;20129;-61
2021/03/29 04:02:30;;;;;;;6.65;3.20;;;;;;;10.61;48.65;101527.81;10328315;28;20142;-62
2021/03/29 04:07:32;;;;;;;7.60;3.47;;;;;;;10.70;48.92;101534.38;10333747;28;20081;-61
2021/03/29 04:12:34;;;;;;;4.15;3.28;;;;;;;10.82;48.30;101530.09;10341206;28;20042;-61
2021/03/29 04:17:35;;;;;;;9.30;3.90;;;;;;;10.85;48.54;101529.91;10329245;28;20050;-61
2021/03/29 04:22:37;;;;;;;6.03;3.53;;;;;;;10.84;48.78;101519.34;10335191;28;20294;-61
2021/03/29 04:27:39;;;;;;;7.10;3.28;;;;;;;10.79;48.99;101527.63;10351857;28;20439;-62
2021/03/29 04:32:44;;;;;;;6.38;3.00;;;;;;;10.75;49.22;101537.63;10352874;28;20062;-61
2021/03/29 04:37:45;;;;;;;8.20;3.35;;;;;;;10.69;49.43;101534.47;10350203;28;20054;-62
2021/03/29 04:42:46;;;;;;;6.80;3.60;;;;;;;10.62;49.15;101536.66;10353159;28;20744;-61
2021/03/29 04:47:47;;;;;;;6.32;3.25;;;;;;;10.64;49.49;101534.75;10319728;28;20049;-62
2021/03/29 04:52:53;;;;;;;5.75;3.28;;;;;;;10.65;49.24;101548.94;10339487;28;20070;-62
2021/03/29 04:57:54;;;;;;;6.35;3.28;;;;;;;10.61;49.48;101549.13;10352216;28;20553;-61
2021/03/29 05:02:55;;;;;;;12.82;5.45;;;;;;;10.64;49.50;101553.38;10315224;28;20277;-61
2021/03/29 05:07:56;;;;;;;8.20;3.20;;;;;;;10.62;49.74;101555.28;10337277;28;20503;-60
2021/03/29 05:12:57;;;;;;;5.75;3.50;;;;;;;10.59;49.45;101560.81;10337912;28;20042;-61
2021/03/29 05:17:58;;;;;;;9.75;3.90;;;;;;;10.57;49.48;101558.22;10341512;28;20050;-63
2021/03/29 05:22:59;;;;;;;8.45;3.42;;;;;;;10.65;49.72;101564.91;10343103;28;20050;-61
2021/03/29 05:28:00;;;;;;;8.55;4.22;;;;;;;10.70;49.28;101566.31;10355883;28;20117;-61
2021/03/29 05:33:02;;;;;;;5.78;3.00;;;;;;;10.71;49.47;101580.50;10341911;28;20064;-66
2021/03/29 05:38:03;;;;;;;7.60;3.42;;;;;;;10.72;49.36;101583.09;10332008;28;20132;-61
2021/03/29 05:43:05;;;;;;;8.13;4.10;;;;;;;10.74;49.36;101588.31;10347377;28;20065;-61
2021/03/29 05:48:09;;;;;;;10.98;4.53;;;;;;;10.76;49.33;101589.94;10347138;28;20099;-61
2021/03/29 05:53:10;;;;;;;8.70;4.13;;;;;;;10.78;49.38;101604.03;10342043;28;20060;-61
2021/03/29 06:03:26;;;;;;;12.13;4.13;;;;;;;10.55;50.30;101609.84;10338392;28;20963;-64
2021/03/29 06:08:29;;;;;;;7.63;3.65;;;;;;;10.63;50.30;101604.06;10336621;28;20738;-58
2021/03/29 06:13:31;;;;;;;9.27;4.15;;;;;;;10.74;49.80;101606.97;10336674;28;20049;-58
2021/03/29 06:18:34;;;;;;;9.82;3.67;;;;;;;10.91;49.49;101617.47;10327023;28;20058;-58
2021/03/29 06:23:38;;;;;;;9.55;3.70;;;;;;;10.94;49.39;101624.41;10324676;28;20495;-61
2021/03/29 06:28:39;;;;;;;7.30;4.37;;;;;;;10.78;49.67;101620.00;10323996;28;20056;-62
2021/03/29 06:33:47;;;;;;;6.80;4.30;;;;;;;10.83;49.75;101616.22;10315894;28;20053;-63
2021/03/29 06:38:48;;;;;;;7.20;4.32;;;;;;;10.86;49.16;101616.03;10320986;28;22338;-60
2021/03/29 06:43:49;;;;;;;8.98;4.57;;;;;;;10.87;49.64;101618.59;10326039;28;20082;-61
2021/03/29 06:48:52;;;;;;;8.38;4.72;;;;;;;11.16;49.28;101629.28;10321165;28;20509;-61
2021/03/29 06:54:01;;;;;;;8.55;4.78;;;;;;;11.36;49.00;101629.88;10325842;28;20141;-61
2021/03/29 06:59:02;;;;;;;9.00;4.38;;;;;;;11.50;48.49;101632.56;10325244;28;20060;-61
2021/03/29 07:04:05;;;;;;;9.40;4.70;;;;;;;11.72;47.75;101631.19;10310317;28;20487;-60
2021/03/29 07:09:07;;;;;;;9.55;4.78;;;;;;;11.76;47.80;101633.56;10319994;28;20089;-60
2021/03/29 07:14:09;;;;;;;10.38;4.22;;;;;;;11.74;47.57;101645.28;10322933;28;21024;-61
2021/03/29 07:19:10;;;;;;;13.32;5.25;;;;;;;11.73;47.79;101648.91;10322006;28;20081;-60
2021/03/29 07:24:13;;;;;;;9.68;4.43;;;;;;;12.00;47.18;101657.00;10323761;28;20066;-61
2021/03/29 07:29:23;;;;;;;7.72;4.93;;;;;;;11.94;47.02;101650.25;10302620;28;20057;-61
2021/03/29 07:34:50;;;;;;;7.40;3.50;;;;;;;12.33;46.26;101659.28;10318042;28;20060;-63
2021/03/29 07:39:52;;;;;;;9.15;3.78;;;;;;;12.40;45.52;101654.41;10323008;28;20046;-62
2021/03/29 07:44:58;;;;;;;8.32;4.35;;;;;;;12.44;45.62;101660.41;10322206;28;20125;-60
2021/03/29 07:49:59;;;;;;;11.68;4.65;;;;;;;12.44;45.31;101665.75;10325316;28;20053;-60
2021/03/29 07:55:17;;;;;;;8.63;4.00;;;;;;;12.47;45.32;101661.03;10323249;28;20888;-60
2021/03/29 08:00:23;;;;;;;8.32;3.70;;;;;;;12.82;44.38;101665.00;10324605;28;20052;-61
2021/03/29 08:05:45;;;;;;;8.05;3.85;;;;;;;13.04;43.77;101675.09;10322321;28;20053;-61
2021/03/29 08:11:14;;;;;;;8.50;3.78;;;;;;;13.06;43.62;101678.50;10322584;28;20079;-61
2021/03/29 08:16:15;;;;;;;9.82;3.58;;;;;;;13.42;43.02;101675.16;10321575;28;20541;-61
2021/03/29 08:21:45;;;;;;;9.85;4.00;;;;;;;13.75;42.16;101676.41;10318862;28;20057;-61
2021/03/29 08:26:47;;;;;;;5.82;3.08;;;;;;;14.13;42.19;101686.16;10322691;28;20773;-61
2021/03/29 08:31:57;;;;;;;6.72;3.33;;;;;;;14.42;41.39;101664.41;10320866;28;20097;-61
2021/03/29 08:37:05;;;;;;;9.13;4.25;;;;;;;14.46;40.33;101681.97;10321323;28;20492;-61
2021/03/29 08:42:07;;;;;;;7.10;3.30;;;;;;;14.79;40.01;101672.41;10311693;28;20042;-61
2021/03/29 08:47:11;;;;;;;5.18;2.97;;;;;;;14.85;39.16;101663.88;10324581;28;20554;-61
2021/03/29 08:52:13;;;;;;;7.63;3.47;;;;;;;15.12;38.62;101673.47;10313258;28;20145;-61
2021/03/29 08:57:14;;;;;;;6.40;3.35;;;;;;;15.35;37.72;101668.13;10318790;28;20060;-61
2021/03/29 09:02:16;;;;;;;9.18;3.15;;;;;;;15.38;38.19;101667.91;10332578;28;20529;-61
2021/03/29 09:07:17;;;;;;;7.85;2.65;;;;;;;15.85;36.52;101684.78;10328762;28;20093;-62
2021/03/29 09:12:22;;;;;;;5.40;2.90;;;;;;;15.98;37.02;101681.09;10329440;28;20045;-61
2021/03/29 09:17:29;;;;;;;5.15;2.67;;;;;;;16.33;36.68;101680.88;10328621;28;20066;-62
2021/03/29 09:22:33;;;;;;;5.35;3.00;;;;;;;16.61;35.23;101684.84;10313076;28;20045;-62
2021/03/29 09:27:36;;;;;;;6.57;2.83;;;;;;;16.90;35.91;101684.28;10327282;28;20108;-61
2021/03/29 09:32:43;;;;;;;6.78;3.05;;;;;;;17.30;33.85;101680.84;10329523;28;20049;-61
2021/03/29 09:37:48;;;;;;;5.32;2.50;;;;;;;17.47;33.96;101689.28;10328107;28;20240;-62
2021/03/29 09:42:54;;;;;;;7.03;3.53;;;;;;;17.84;33.47;101672.59;10328474;28;20666;-61
2021/03/29 09:48:08;;;;;;;7.90;2.50;;;;;;;18.44;32.32;101682.53;10328893;28;20077;-62
2021/03/29 09:53:15;;;;;;;6.07;2.42;;;;;;;18.70;32.04;101702.56;10327451;28;20054;-62
2021/03/29 09:58:17;;;;;;;6.40;2.88;;;;;;;19.02;31.48;101693.34;10325276;28;20049;-62
2021/03/29 10:03:20;;;;;;;6.38;2.65;;;;;;;19.29;30.12;101697.16;10311089;28;20507;-63
2021/03/29 10:08:33;;;;;;;3.92;1.98;;;;;;;19.76;30.13;101691.72;10327903;28;20131;-64
2021/03/29 10:13:36;;;;;;;4.47;2.70;;;;;;;20.57;28.39;101687.44;10325846;28;22215;-62
2021/03/29 10:18:38;;;;;;;4.45;2.20;;;;;;;22.56;25.43;101680.28;10304904;28;20050;-62
2021/03/29 10:23:43;;;;;;;5.72;2.78;;;;;;;25.47;22.97;101680.44;10324884;28;20097;-62
2021/03/29 10:28:52;;;;;;;6.55;2.33;;;;;;;27.32;19.55;101672.75;10326759;28;20584;-63
2021/03/29 10:33:54;;;;;;;5.53;2.40;;;;;;;25.19;21.49;101677.47;10327657;28;20135;-63
2021/03/29 10:38:56;;;;;;;7.68;2.38;;;;;;;23.81;23.08;101666.34;10324682;28;20053;-63
2021/03/29 10:43:57;;;;;;;6.60;2.42;;;;;;;24.03;23.56;101671.22;10325846;28;20761;-63
2021/03/29 10:48:58;;;;;;;5.60;2.17;;;;;;;27.05;20.53;101666.28;10308035;28;20116;-63
2021/03/29 10:53:59;;;;;;;6.45;2.17;;;;;;;29.90;16.86;101663.44;10306649;28;20046;-63
2021/03/29 10:59:00;;;;;;;6.22;2.40;;;;;;;32.30;15.52;101656.78;10324852;28;20765;-62
2021/03/29 11:04:01;;;;;;;8.18;2.30;;;;;;;33.08;15.29;101654.84;10323738;28;21459;-63
2021/03/29 11:09:02;;;;;;;4.97;1.90;;;;;;;32.72;14.39;101665.03;10324713;28;20057;-65
2021/03/29 11:14:04;;;;;;;6.22;2.58;;;;;;;34.00;13.15;101669.00;10325843;28;20066;-63
2021/03/29 11:19:04;;;;;;;;;;;;;;;35.36;12.48;101655.25;10326210;28;20045;-64
2021/03/29 11:24:06;;;;;;;8.57;2.65;;;;;;;35.95;12.65;101639.91;10324561;28;20286;-64
2021/03/29 11:29:07;;;;;;;7.50;2.42;;;;;;;34.78;12.94;101644.41;10325106;28;20066;-63
2021/03/29 11:34:09;;;;;;;5.45;2.60;;;;;;;36.40;12.03;101625.66;10324552;28;20072;-63
2021/03/29 11:39:11;;;;;;;4.50;1.70;;;;;;;37.85;10.19;101622.63;10325193;28;20069;-64
2021/03/29 11:44:12;;;;;;;4.38;2.08;;;;;;;37.48;11.48;101633.88;10323651;28;20533;-65
2021/03/29 11:49:13;;;;;;;4.32;2.58;;;;;;;37.15;11.46;101625.66;10324074;28;20064;-63
2021/03/29 11:54:15;;;;;;;4.18;2.28;;;;;;;38.03;9.97;101617.66;10322343;28;20065;-63
2021/03/29 11:59:16;;;;;;;3.67;2.30;;;;;;;38.00;10.15;101619.03;10321217;28;20511;-63
2021/03/29 12:04:30;;;;;;;6.53;2.70;;;;;;;39.58;9.82;101615.50;10321938;28;20677;-62
2021/03/29 12:09:43;;;;;;;3.75;2.28;;;;;;;40.99;8.82;101612.16;10323401;28;20127;-62
2021/03/29 12:14:45;;;;;;;4.88;2.30;;;;;;;41.33;7.79;101600.88;10322090;28;20079;-63
2021/03/29 12:19:46;;;;;;;3.88;1.98;;;;;;;42.19;7.19;101604.66;10320375;28;20053;-62
2021/03/29 12:24:50;;;;;;;4.72;1.70;;;;;;;41.91;7.22;101603.69;10322199;28;20076;-64
2021/03/29 12:29:52;;;;;;;5.18;1.65;;;;;;;41.85;7.39;101586.97;10317221;28;20655;-54
2021/03/29 12:34:56;;;;;;;4.32;1.70;;;;;;;41.33;7.53;101584.09;10319433;28;20145;-60
2021/03/29 12:44:58;;;;;;;3.33;1.10;;;;;;;39.18;9.51;101575.56;10320979;28;20573;-55
2021/03/29 12:50:11;;;;;;;3.28;1.55;;;;;;;39.07;8.64;101569.19;10306123;28;20636;-54
2021/03/29 12:55:18;;;;;;;5.13;1.65;;;;;;;41.15;7.88;101560.56;10319319;28;20084;-54
2021/03/29 13:00:21;;;;;;;3.65;0.90;;;;;;;40.78;8.26;101558.50;10322643;28;20104;-54
2021/03/29 13:05:35;;;;;;;4.05;1.10;;;;;;;41.37;7.11;101561.97;10321859;28;20065;-55
2021/03/29 13:15:50;;;;;;;2.72;1.15;;;;;;;41.21;7.17;101557.69;10317680;28;20117;-54
2021/03/29 13:20:52;;;;;;;5.10;1.17;;;;;;;37.38;9.00;101564.44;10316666;28;20046;-53
2021/03/29 13:25:53;;;;;;;3.08;1.20;;;;;;;33.68;11.83;101552.66;10318370;28;20107;-54
2021/03/29 13:30:54;;;;;;;3.60;1.20;;;;;;;31.61;12.34;101546.16;10318304;28;20117;-55
2021/03/29 13:35:55;;;;;;;2.72;1.05;;;;;;;30.04;14.88;101548.09;10314598;28;20100;-54
2021/03/29 13:40:56;;;;;;;4.25;1.20;;;;;;;29.68;15.07;101549.56;10317128;28;20057;-54
2021/03/29 13:45:57;;;;;;;2.67;1.30;;;;;;;29.21;15.40;101544.28;10321647;28;20069;-53
2021/03/29 13:50:59;;;;;;;3.40;1.33;;;;;;;28.34;15.60;101523.31;10325295;28;20485;-54
2021/03/29 13:56:00;;;;;;;3.70;1.55;;;;;;;27.96;16.04;101528.53;10320546;28;20053;-54
2021/03/29 14:01:01;;;;;;;2.38;1.33;;;;;;;27.68;16.42;101521.31;10324087;28;20050;-54
2021/03/29 14:06:02;;;;;;;4.22;1.50;;;;;;;27.41;16.96;101521.22;10322602;28;20125;-54
2021/03/29 14:11:04;;;;;;;4.23;1.40;;;;;;;26.87;16.67;101506.44;10322541;28;20070;-54
2021/03/29 14:16:05;;;;;;;3.80;1.42;;;;;;;26.58;16.70;101513.78;10305116;28;20130;-54
2021/03/29 14:21:10;;;;;;;2.63;1.50;;;;;;;26.06;17.31;101498.66;10325622;28;20597;-62
2021/03/29 14:26:11;;;;;;;4.60;1.42;;;;;;;25.66;17.18;101506.44;10337112;28;20471;-62
2021/03/29 14:31:12;;;;;;;3.13;1.98;;;;;;;25.41;18.06;101502.16;10323539;28;21423;-62
2021/03/29 14:46:38;;;;;;;3.58;1.50;;;;;;;24.41;19.21;101489.84;10322060;28;20128;-62
2021/03/29 14:51:39;;;;;;;5.57;1.52;;;;;;;24.22;19.62;101484.94;10305862;28;20120;-61
2021/03/29 14:56:41;;;;;;;4.25;1.35;;;;;;;24.07;19.67;101493.88;10319831;28;20064;-62
2021/03/29 15:01:42;;;;;;;5.03;1.95;;;;;;;23.82;19.73;101498.63;10341576;23;20053;-57
2021/03/29 15:06:46;;;;;;;4.07;1.70;;;;;;;23.47;20.18;101487.31;10349642;28;20466;-58
2021/03/29 15:11:47;;;;;;;3.92;1.33;;;;;;;23.00;20.37;101474.59;10330086;28;20136;-56
2021/03/29 15:16:55;;;;;;;2.55;1.48;;;;;;;22.85;20.63;101466.34;10317621;28;20058;-56
2021/03/29 15:21:56;;;;;;;6.43;2.55;;;;;;;22.92;20.74;101487.22;10313298;28;20132;-56
2021/03/29 15:26:57;;;;;;;3.03;1.85;;;;;;;22.62;20.96;101463.53;10312755;28;20058;-55
2021/03/29 15:31:58;;;;;;;3.80;1.63;;;;;;;22.47;20.67;101466.94;10312728;28;20062;-56
2021/03/29 15:37:01;;;;;;;4.43;1.63;;;;;;;22.42;20.78;101462.03;10315386;28;20058;-55
2021/03/29 15:42:04;;;;;;;3.67;1.98;;;;;;;22.44;21.05;101470.00;10308547;28;20149;-56
2021/03/29 15:47:05;;;;;;;4.50;1.43;;;;;;;22.30;20.99;101467.97;10317910;28;20163;-56
2021/03/29 15:52:06;;;;;;;4.13;1.80;;;;;;;22.06;20.92;101459.69;10320214;28;20057;-56
2021/03/29 15:57:08;;;;;;;4.22;1.40;;;;;;;22.17;21.36;101474.78;10320180;28;20564;-56
2021/03/29 16:02:16;;;;;;;2.90;1.92;;;;;;;21.94;21.19;101446.66;10302715;28;20060;-56
2021/03/29 16:07:17;;;;;;;5.63;2.00;;;;;;;21.87;21.62;101465.44;10312637;28;20130;-56
2021/03/29 16:12:19;;;;;;;4.40;2.58;;;;;;;21.90;21.60;101478.66;10302920;28;20173;-56
2021/03/29 16:17:20;;;;;;;3.08;2.10;;;;;;;21.70;21.29;101453.75;10317921;28;20537;-56
2021/03/29 16:22:22;;;;;;;2.75;1.55;;;;;;;21.61;21.39;101463.72;10315304;28;20045;-55
2021/03/29 16:27:23;;;;;;;4.60;2.13;;;;;;;21.52;21.52;101470.97;10313004;28;20046;-58
2021/03/29 16:32:25;;;;;;;4.97;2.00;;;;;;;21.42;21.87;101475.66;10311889;28;20080;-58
2021/03/29 16:37:26;;;;;;;3.90;1.85;;;;;;;21.32;21.99;101464.97;10306267;28;20058;-56
2021/03/29 16:42:27;;;;;;;5.32;1.65;;;;;;;21.26;22.27;101470.19;10314317;28;20046;-56
2021/03/29 16:47:28;;;;;;;3.83;1.90;;;;;;;21.19;22.63;101470.00;10315547;28;20062;-57
2021/03/29 16:52:29;;;;;;;3.17;1.80;;;;;;;21.13;22.65;101466.09;10294213;28;20498;-57
2021/03/29 16:57:32;;;;;;;5.57;1.60;;;;;;;21.06;22.70;101467.75;10308978;28;20054;-57
2021/03/29 17:02:35;;;;;;;2.95;1.88;;;;;;;20.84;22.78;101445.69;10309904;28;20050;-56
2021/03/29 17:07:36;;;;;;;4.07;1.63;;;;;;;20.85;22.48;101468.16;10308361;28;20064;-56
2021/03/29 17:12:37;;;;;;;5.95;1.73;;;;;;;20.77;22.85;101466.25;10294000;28;20054;-56
2021/03/29 17:17:38;;;;;;;3.85;1.40;;;;;;;20.69;22.56;101474.34;10308878;28;20562;-56
2021/03/29 17:22:40;;;;;;;5.13;2.67;;;;;;;20.53;23.20;101468.81;10305839;28;20149;-54
2021/03/29 17:28:01;;;;;;;4.60;2.13;;;;;;;20.46;23.17;101480.28;10321061;28;20056;-55
2021/03/29 17:33:02;;;;;;;3.75;2.30;;;;;;;20.37;23.47;101481.22;10319481;28;20060;-57
2021/03/29 17:38:03;;;;;;;4.90;1.70;;;;;;;20.29;23.65;101491.97;10320851;28;20050;-57
2021/03/29 17:43:04;;;;;;;5.13;2.63;;;;;;;20.18;23.99;101493.06;10319035;28;20049;-60
2021/03/29 17:48:06;;;;;;;6.95;1.83;;;;;;;20.06;24.09;101480.81;10322716;28;20046;-58
2021/03/29 17:53:07;;;;;;;4.20;2.15;;;;;;;19.86;24.02;101472.00;10318764;28;21647;-56
2021/03/29 17:58:08;;;;;;;5.57;2.55;;;;;;;19.83;23.80;101488.53;10318201;28;20054;-59
2021/03/29 18:03:10;;;;;;;4.75;2.63;;;;;;;19.74;24.44;101484.84;10317488;28;20042;-55
2021/03/29 18:08:11;;;;;;;6.50;2.00;;;;;;;19.56;24.61;101484.84;10320153;28;20069;-56
2021/03/29 18:13:12;;;;;;;3.08;2.13;;;;;;;19.52;25.59;101491.56;10296918;28;20403;-56
2021/03/29 18:18:13;;;;;;;6.50;1.75;;;;;;;19.25;24.86;101479.78;10318140;28;20483;-56
2021/03/29 18:23:14;;;;;;;4.05;2.25;;;;;;;19.31;25.18;101498.09;10318988;28;20111;-57
2021/03/29 18:28:15;;;;;;;4.70;2.92;;;;;;;19.15;25.26;101493.31;10319456;28;23494;-58
2021/03/29 18:33:16;;;;;;;6.22;3.20;;;;;;;19.12;24.82;101507.13;10316087;28;20050;-56
2021/03/29 18:38:17;;;;;;;2.83;2.45;;;;;;;19.07;25.12;101523.75;10306082;28;20089;-56
2021/03/29 18:43:18;;;;;;;4.35;3.40;;;;;;;19.02;25.31;101527.88;10318282;28;20083;-57
2021/03/29 18:48:19;;;;;;;5.53;3.25;;;;;;;18.87;25.10;101524.81;10315463;28;20090;-57
2021/03/29 18:53:24;;;;;;;6.38;3.40;;;;;;;18.64;25.35;101498.16;10319410;28;20475;-57
2021/03/29 18:58:25;;;;;;;6.47;3.40;;;;;;;18.85;25.34;101548.38;10319380;28;20133;-58
2021/03/29 19:03:26;;;;;;;8.65;3.30;;;;;;;18.74;25.62;101557.50;10315681;28;20053;-56
2021/03/29 19:08:29;;;;;;;5.22;2.70;;;;;;;18.66;25.17;101563.63;10315171;28;20045;-56
2021/03/29 19:13:31;;;;;;;8.50;4.10;;;;;;;18.54;25.45;101564.78;10301347;28;20451;-57
2021/03/29 19:18:36;;;;;;;8.38;3.30;;;;;;;18.35;25.64;101550.31;10316948;28;20049;-56
2021/03/29 19:23:37;;;;;;;5.80;2.67;;;;;;;18.41;25.92;101569.59;10299534;28;20057;-56
2021/03/29 19:28:40;;;;;;;4.70;2.38;;;;;;;18.34;25.92;101572.84;10316967;28;20049;-57
2021/03/29 19:33:44;;;;;;;4.95;3.05;;;;;;;18.22;26.43;101578.53;10315192;28;20137;-56
2021/03/29 19:38:48;;;;;;;5.13;3.00;;;;;;;18.24;27.21;101593.59;10315887;28;20050;-56
2021/03/29 19:43:50;;;;;;;5.43;3.40;;;;;;;18.15;27.38;101581.81;10315610;28;20873;-56
2021/03/29 19:48:51;;;;;;;7.90;3.97;;;;;;;17.94;27.63;101590.00;10313128;28;20192;-58
2021/03/29 19:54:09;;;;;;;7.95;5.28;;;;;;;17.83;27.74;101598.16;10312144;28;20042;-57
2021/03/29 19:59:10;;;;;;;7.65;4.78;;;;;;;17.63;28.17;101590.03;10316105;28;20054;-57
2021/03/29 20:09:27;;;;;;;6.82;3.65;;;;;;;17.55;28.35;101614.09;10319098;28;20053;-57
2021/03/29 20:14:34;;;;;;;4.25;3.15;;;;;;;17.40;28.37;101604.66;10317036;28;20133;-56
2021/03/29 20:19:35;;;;;;;6.47;3.25;;;;;;;17.29;28.47;101606.50;10318589;28;20053;-57
2021/03/29 20:24:36;;;;;;;6.28;3.83;;;;;;;17.09;29.52;101610.91;10318638;28;20533;-56
2021/03/29 20:29:38;;;;;;;10.35;4.30;;;;;;;16.91;30.16;101617.88;10321384;28;20058;-57
2021/03/29 20:34:42;;;;;;;7.78;4.68;;;;;;;16.75;30.43;101615.59;10300917;28;22352;-56
2021/03/29 20:39:43;;;;;;;7.63;4.97;;;;;;;16.68;30.46;101615.28;10320175;28;20123;-57
2021/03/29 20:44:44;;;;;;;7.35;4.70;;;;;;;16.57;30.74;101615.34;10318076;28;20348;-56
2021/03/29 20:49:45;;;;;;;5.43;4.13;;;;;;;16.45;31.10;101619.91;10302462;28;20672;-57
2021/03/29 20:54:46;;;;;;;7.03;4.22;;;;;;;16.35;30.98;101619.84;10320440;28;20057;-58
2021/03/29 20:59:47;;;;;;;4.80;3.80;;;;;;;16.30;31.49;101618.50;10317118;28;20073;-56
2021/03/29 21:04:48;;;;;;;5.97;3.95;;;;;;;16.19;31.61;101617.56;10315484;28;20061;-57
2021/03/29 21:09:49;;;;;;;7.80;4.60;;;;;;;16.05;31.77;101620.53;10338335;22;20588;-62
2021/03/29 21:14:50;;;;;;;7.35;5.45;;;;;;;15.94;31.85;101618.72;10332101;28;20049;-61
2021/03/29 21:19:51;;;;;;;6.97;5.50;;;;;;;15.83;32.64;101616.06;10345351;28;20053;-62
2021/03/29 21:24:52;;;;;;;10.63;5.45;;;;;;;15.75;32.87;101619.34;10346630;28;20268;-62
2021/03/29 21:30:05;;;;;;;8.70;5.47;;;;;;;15.56;33.16;101617.28;10353517;28;20049;-61
2021/03/29 21:35:12;;;;;;;10.15;4.45;;;;;;;15.66;33.14;101622.78;10352441;28;20054;-63
2021/03/29 21:40:16;;;;;;;7.60;4.35;;;;;;;15.66;33.40;101628.16;10345633;28;20053;-63
2021/03/29 21:45:18;;;;;;;5.35;3.45;;;;;;;15.80;32.49;101619.84;10333592;28;20065;-61
2021/03/29 21:50:19;;;;;;;6.15;3.97;;;;;;;15.74;33.36;101621.16;10350226;28;20053;-62
2021/03/29 21:55:20;;;;;;;6.00;3.88;;;;;;;15.62;33.32;101634.72;10350205;28;20104;-62
2021/03/29 22:00:25;;;;;;;6.72;3.83;;;;;;;15.45;34.40;101626.19;10338069;28;20055;-61
2021/03/29 22:05:29;;;;;;;6.63;4.20;;;;;;;15.36;34.58;101638.50;10332565;28;20083;-65
2021/03/29 22:10:31;;;;;;;6.15;4.40;;;;;;;15.26;34.51;101642.03;10368233;28;20049;-61
2021/03/29 22:15:32;;;;;;;8.27;4.50;;;;;;;15.17;35.12;101638.25;10370423;28;20130;-60
2021/03/29 22:20:38;;;;;;;6.47;5.20;;;;;;;15.08;35.09;101639.81;10367011;28;22669;-61
2021/03/29 22:25:41;;;;;;;6.97;5.50;;;;;;;14.85;35.40;101629.03;10367873;28;20138;-62
2021/03/29 22:31:02;;;;;;;11.70;6.30;;;;;;;14.87;35.43;101647.69;10378874;28;20061;-62
2021/03/29 22:36:28;;;;;;;7.88;4.53;;;;;;;14.70;35.82;101640.94;10376450;28;20103;-61
2021/03/29 22:46:49;;;;;;;8.18;5.35;;;;;;;14.44;36.87;101646.41;10371494;28;20049;-60
2021/03/29 22:51:50;;;;;;;6.90;5.30;;;;;;;14.41;36.85;101648.44;10374960;28;20050;-60
2021/03/29 22:56:51;;;;;;;9.23;5.25;;;;;;;14.32;37.33;101645.50;10371215;28;20111;-61
2021/03/29 23:01:52;;;;;;;8.30;5.15;;;;;;;14.23;37.89;101642.63;10368965;28;20747;-63
2021/03/29 23:06:53;;;;;;;7.72;5.43;;;;;;;14.12;38.59;101646.09;10374435;28;20050;-61
2021/03/29 23:11:54;;;;;;;7.95;5.65;;;;;;;14.04;38.50;101654.69;10376284;28;20504;-60
2021/03/29 23:16:55;;;;;;;6.13;5.05;;;;;;;14.04;38.88;101651.19;10371229;28;20056;-63
2021/03/29 23:21:56;;;;;;;6.43;5.53;;;;;;;13.89;39.25;101650.47;10374060;28;20058;-62
2021/03/29 23:26:57;;;;;;;8.77;4.68;;;;;;;13.84;39.42;101655.28;10369206;28;20109;-60
2021/03/29 23:31:58;;;;;;;7.85;5.25;;;;;;;13.80;39.72;101657.34;10374182;28;20103;-64
2021/03/29 23:36:59;;;;;;;6.65;5.18;;;;;;;13.81;39.83;101652.81;10367360;28;20057;-60
2021/03/29 23:42:00;;;;;;;6.10;5.47;;;;;;;13.73;40.06;101650.72;10360496;28;20053;-61
2021/03/29 23:47:01;;;;;;;7.07;4.90;;;;;;;13.60;40.14;101666.75;10367010;28;20104;-60
2021/03/29 23:52:03;;;;;;;8.85;6.00;;;;;;;13.51;40.46;101660.28;10367091;28;20057;-64